Time,TemperatureF,DewpointF,PressureIn,WindDirection,WindDirectionDegrees,WindSpeedMPH,WindSpeedGustMPH,Humidity,HourlyPrecipIn,Conditions,Clouds,dailyrainin,SoftwareType,DateUTC
2013-02-14 00:00:00,34.3,30.6,29.77,SW,225,2.3,2.3,86,0.00,BKN,,0.00,WeatherDisplay:10.37,2013-02-14 06:00:00,
2013-02-14 00:05:00,34.2,30.4,29.77,South,180,1.6,1.6,86,0.00,BKN,,0.00,WeatherDisplay:10.37,2013-02-14 06:05:00,
2013-02-14 00:10:00,34.2,30.4,29.77,SW,225,2.6,2.6,86,0.00,BKN,,0.00,WeatherDisplay:10.37,2013-02-14 06:10:00,
2013-02-14 00:15:00,34.5,30.8,29.77,SSW,202,2.3,2.3,86,0.00,BKN,,0.00,WeatherDisplay:10.37,2013-02-14 06:15:00,
2013-02-14 00:20:00,34.5,30.8,29.77,South,180,1.2,1.3,86,0.00,BKN,,0.00,WeatherDisplay:10.37,2013-02-14 06:20:00,
2013-02-14 00:25:00,34.7,31.2,29.77,South,180,3.5,3.5,87,0.00,BKN,,0.00,WeatherDisplay:10.37,2013-02-14 06:25:00,
2013-02-14 00:30:00,34.7,31.2,29.77,SSE,158,2.3,2.3,87,0.00,BKN,,0.00,WeatherDisplay:10.37,2013-02-14 06:30:00,
2013-02-14 00:35:00,34.9,31.4,29.77,SSE,158,2.6,2.6,87,0.00,BKN,,0.00,WeatherDisplay:10.37,2013-02-14 06:35:00,
2013-02-14 00:40:00,34.9,31.1,29.75,SSW,202,5.8,5.8,86,0.00,BKN,,0.00,WeatherDisplay:10.37,2013-02-14 06:40:00,
2013-02-14 00:45:00,35.1,31.6,29.75,NW,315,1.2,2.0,87,0.00,BKN,,0.00,WeatherDisplay:10.37,2013-02-14 06:45:00,
2013-02-14 00:50:00,35.1,31.3,29.75,South,180,2.3,2.3,86,0.00,BKN,,0.00,WeatherDisplay:10.37,2013-02-14 06:50:00,
2013-02-14 00:55:00,35.4,31.6,29.75,South,180,1.2,1.4,86,0.00,BKN,,0.00,WeatherDisplay:10.37,2013-02-14 06:55:00,
2013-02-14 01:00:00,35.4,31.6,29.76,South,180,2.8,2.8,86,0.00,BKN,,0.00,WeatherDisplay:10.37,2013-02-14 07:00:00,
2013-02-14 01:05:00,35.2,31.5,29.76,South,180,1.3,1.4,86,0.00,BKN,,0.00,WeatherDisplay:10.37,2013-02-14 07:05:00,
2013-02-14 01:10:00,35.4,31.6,29.76,South,180,2.3,2.3,86,0.00,BKN,,0.00,WeatherDisplay:10.37,2013-02-14 07:10:00,
2013-02-14 01:15:00,35.4,31.6,29.76,WSW,248,2.4,2.4,86,0.00,BKN,,0.00,WeatherDisplay:10.37,2013-02-14 07:15:00,
2013-02-14 01:20:00,35.4,31.6,29.76,SE,135,3.5,3.5,86,0.00,BKN,,0.00,WeatherDisplay:10.37,2013-02-14 07:20:00,
2013-02-14 01:25:00,35.4,31.6,29.76,South,180,2.4,2.4,86,0.00,BKN,,0.00,WeatherDisplay:10.37,2013-02-14 07:25:00,
2013-02-14 01:30:00,35.4,31.6,29.76,SW,225,3.5,3.5,86,0.00,BKN,,0.00,WeatherDisplay:10.37,2013-02-14 07:30:00,
2013-02-14 01:36:00,35.4,31.6,29.76,SSE,158,4.6,4.6,86,0.00,BKN,,0.00,WeatherDisplay:10.37,2013-02-14 07:36:00,
2013-02-14 01:41:00,35.4,31.6,29.75,South,180,3.5,3.5,86,0.00,BKN,,0.00,WeatherDisplay:10.37,2013-02-14 07:41:00,
2013-02-14 01:46:00,35.2,31.5,29.75,South,180,2.3,2.3,86,0.00,BKN,,0.00,WeatherDisplay:10.37,2013-02-14 07:46:00,
2013-02-14 01:51:00,35.4,31.6,29.75,South,180,2.3,2.3,86,0.00,BKN,,0.00,WeatherDisplay:10.37,2013-02-14 07:51:00,
2013-02-14 01:56:00,35.4,31.6,29.75,South,180,1.3,1.6,86,0.00,BKN,,0.00,WeatherDisplay:10.37,2013-02-14 07:56:00,
2013-02-14 02:01:00,35.4,31.6,29.75,South,180,2.3,2.3,86,0.00,BKN,,0.00,WeatherDisplay:10.37,2013-02-14 08:01:00,
2013-02-14 02:06:00,35.4,31.6,29.75,South,180,1.2,1.8,86,0.00,BKN,,0.00,WeatherDisplay:10.37,2013-02-14 08:06:00,
2013-02-14 02:11:00,35.6,31.8,29.75,South,180,4.6,4.6,86,0.00,BKN,,0.00,WeatherDisplay:10.37,2013-02-14 08:11:00,
2013-02-14 02:16:00,35.8,32.0,29.75,South,180,3.5,3.5,86,0.00,BKN,,0.00,WeatherDisplay:10.37,2013-02-14 08:16:00,
2013-02-14 02:21:00,35.8,32.0,29.75,South,180,2.3,2.3,86,0.00,BKN,,0.00,WeatherDisplay:10.37,2013-02-14 08:21:00,
2013-02-14 02:26:00,35.6,31.5,29.75,South,180,3.5,3.5,85,0.00,BKN,,0.00,WeatherDisplay:10.37,2013-02-14 08:26:00,
2013-02-14 02:31:00,35.6,31.5,29.75,South,180,6.9,6.9,85,0.00,BKN,,0.00,WeatherDisplay:10.37,2013-02-14 08:31:00,
2013-02-14 02:36:00,35.8,31.7,29.75,SSE,158,3.8,3.8,85,0.00,BKN,,0.00,WeatherDisplay:10.37,2013-02-14 08:36:00,
2013-02-14 02:41:00,36.0,31.9,29.74,WSW,248,0.0,2.4,85,0.00,BKN,,0.00,WeatherDisplay:10.37,2013-02-14 08:41:00,
2013-02-14 02:46:00,36.1,32.1,29.74,SSE,158,3.5,3.5,85,0.00,BKN,,0.00,WeatherDisplay:10.37,2013-02-14 08:46:00,
2013-02-14 02:51:00,36.3,32.2,29.74,South,180,3.5,3.5,85,0.00,BKN,,0.00,WeatherDisplay:10.37,2013-02-14 08:51:00,
2013-02-14 02:56:00,36.3,32.2,29.74,South,180,4.6,4.6,85,0.00,BKN,,0.00,WeatherDisplay:10.37,2013-02-14 08:56:00,
2013-02-14 03:01:00,36.3,32.2,29.73,South,180,5.2,5.2,85,0.00,BKN,,0.00,WeatherDisplay:10.37,2013-02-14 09:01:00,
2013-02-14 03:06:00,36.3,31.9,29.73,SE,135,3.5,3.5,84,0.00,BKN,,0.00,WeatherDisplay:10.37,2013-02-14 09:06:00,
2013-02-14 03:11:00,36.3,31.9,29.73,SE,135,2.6,3.0,84,0.00,BKN,,0.00,WeatherDisplay:10.37,2013-02-14 09:11:00,
2013-02-14 03:16:00,36.3,31.9,29.73,SE,135,4.6,4.6,84,0.00,BKN,,0.00,WeatherDisplay:10.37,2013-02-14 09:16:00,
2013-02-14 03:21:00,36.3,31.9,29.73,WSW,248,4.6,4.6,84,0.00,BKN,,0.00,WeatherDisplay:10.37,2013-02-14 09:21:00,
2013-02-14 03:26:00,36.5,32.1,29.73,South,180,2.3,2.6,84,0.00,BKN,,0.00,WeatherDisplay:10.37,2013-02-14 09:26:00,
2013-02-14 03:31:00,36.5,32.1,29.73,SE,135,2.3,2.6,84,0.00,BKN,,0.00,WeatherDisplay:10.37,2013-02-14 09:31:00,
2013-02-14 03:36:00,36.3,31.9,29.73,South,180,2.3,2.3,84,0.00,BKN,,0.00,WeatherDisplay:10.37,2013-02-14 09:36:00,
2013-02-14 03:41:00,36.3,31.9,29.72,SSE,158,2.3,2.3,84,0.00,BKN,,0.00,WeatherDisplay:10.37,2013-02-14 09:41:00,
2013-02-14 03:46:00,36.3,31.9,29.72,SSE,158,3.5,3.5,84,0.00,BKN,,0.00,WeatherDisplay:10.37,2013-02-14 09:46:00,
2013-02-14 03:51:00,36.3,31.9,29.72,South,180,2.3,2.4,84,0.00,BKN,,0.00,WeatherDisplay:10.37,2013-02-14 09:51:00,
2013-02-14 03:56:00,36.3,31.9,29.72,SSE,158,2.3,2.5,84,0.00,BKN,,0.00,WeatherDisplay:10.37,2013-02-14 09:56:00,
2013-02-14 04:01:00,36.3,31.9,29.72,SE,135,3.5,3.5,84,0.00,BKN,,0.00,WeatherDisplay:10.37,2013-02-14 10:01:00,
2013-02-14 04:06:00,36.5,32.1,29.72,South,180,10.4,10.4,84,0.00,BKN,,0.00,WeatherDisplay:10.37,2013-02-14 10:06:00,
2013-02-14 04:11:00,36.5,32.1,29.72,South,180,9.2,9.2,84,0.00,BKN,,0.00,WeatherDisplay:10.37,2013-02-14 10:11:00,
2013-02-14 04:16:00,36.9,32.5,29.72,South,180,7.9,7.9,84,0.00,BKN,,0.00,WeatherDisplay:10.37,2013-02-14 10:16:00,
2013-02-14 04:21:00,36.7,32.3,29.72,South,180,9.2,9.2,84,0.00,BKN,,0.00,WeatherDisplay:10.37,2013-02-14 10:21:00,
2013-02-14 04:26:00,37.2,32.5,29.72,SSE,158,6.9,6.9,83,0.00,BKN,,0.00,WeatherDisplay:10.37,2013-02-14 10:26:00,
2013-02-14 04:31:00,37.0,32.4,29.72,South,180,8.4,8.4,83,0.00,BKN,,0.00,WeatherDisplay:10.37,2013-02-14 10:31:00,
2013-02-14 04:36:00,37.0,32.4,29.72,South,180,6.9,6.9,83,0.00,BKN,,0.00,WeatherDisplay:10.37,2013-02-14 10:36:00,
2013-02-14 04:41:00,37.2,32.5,29.72,South,180,4.6,4.6,83,0.00,BKN,,0.00,WeatherDisplay:10.37,2013-02-14 10:41:00,
2013-02-14 04:46:00,37.2,32.2,29.72,SW,225,4.6,4.6,82,0.00,BKN,,0.00,WeatherDisplay:10.37,2013-02-14 10:46:00,
2013-02-14 04:51:00,37.4,32.4,29.72,SW,225,9.2,9.2,82,0.00,BKN,,0.00,WeatherDisplay:10.37,2013-02-14 10:51:00,
2013-02-14 04:56:00,37.6,32.6,29.72,SSW,202,5.8,5.8,82,0.00,BKN,,0.00,WeatherDisplay:10.37,2013-02-14 10:56:00,
2013-02-14 05:01:00,37.6,32.6,29.70,SW,225,6.9,6.9,82,0.00,BKN,,0.00,WeatherDisplay:10.37,2013-02-14 11:01:00,
2013-02-14 05:06:00,37.6,32.6,29.70,South,180,6.6,6.6,82,0.00,OVC,,0.00,WeatherDisplay:10.37,2013-02-14 11:06:00,
2013-02-14 05:11:00,37.6,32.6,29.70,SE,135,8.4,8.4,82,0.00,OVC,,0.00,WeatherDisplay:10.37,2013-02-14 11:11:00,
2013-02-14 05:16:00,37.6,32.6,29.70,South,180,7.2,7.2,82,0.00,OVC,,0.00,WeatherDisplay:10.37,2013-02-14 11:16:00,
2013-02-14 05:21:00,37.6,32.6,29.68,SE,135,4.7,4.7,82,0.00,OVC,,0.00,WeatherDisplay:10.37,2013-02-14 11:21:00,
2013-02-14 05:26:00,37.6,32.6,29.68,South,180,4.6,4.6,82,0.00,OVC,,0.00,WeatherDisplay:10.37,2013-02-14 11:26:00,
2013-02-14 05:31:00,37.6,32.6,29.68,SSE,158,2.6,3.5,82,0.00,OVC,,0.00,WeatherDisplay:10.37,2013-02-14 11:31:00,
2013-02-14 05:36:00,37.6,32.6,29.68,SSW,202,4.6,4.6,82,0.00,OVC,,0.00,WeatherDisplay:10.37,2013-02-14 11:36:00,
2013-02-14 05:41:00,37.6,32.6,29.68,South,180,4.6,4.6,82,0.00,OVC,,0.00,WeatherDisplay:10.37,2013-02-14 11:41:00,
2013-02-14 05:46:00,37.8,32.5,29.68,SSE,158,5.8,5.8,81,0.00,OVC,,0.00,WeatherDisplay:10.37,2013-02-14 11:46:00,
2013-02-14 05:51:00,37.9,32.6,29.68,South,180,9.2,9.2,81,0.00,OVC,,0.00,WeatherDisplay:10.37,2013-02-14 11:51:00,
2013-02-14 05:56:00,37.8,32.5,29.68,SSE,158,5.8,5.8,81,0.00,OVC,,0.00,WeatherDisplay:10.37,2013-02-14 11:56:00,
2013-02-14 06:01:00,37.8,32.5,29.68,SSE,158,5.8,5.8,81,0.00,OVC,,0.00,WeatherDisplay:10.37,2013-02-14 12:01:00,
2013-02-14 06:06:00,37.8,32.5,29.68,South,180,6.9,6.9,81,0.00,OVC,,0.00,WeatherDisplay:10.37,2013-02-14 12:06:00,
2013-02-14 06:11:00,37.8,32.5,29.68,SSE,158,9.2,9.2,81,0.00,OVC,,0.00,WeatherDisplay:10.37,2013-02-14 12:11:00,
2013-02-14 06:16:00,37.8,32.5,29.68,SSW,202,6.9,6.9,81,0.00,OVC,,0.00,WeatherDisplay:10.37,2013-02-14 12:16:00,
2013-02-14 06:21:00,37.8,32.1,29.69,South,180,5.8,5.8,80,0.00,OVC,,0.00,WeatherDisplay:10.37,2013-02-14 12:21:00,
2013-02-14 06:26:00,37.6,32.3,29.69,SSE,158,9.2,9.2,81,0.00,OVC,,0.00,WeatherDisplay:10.37,2013-02-14 12:26:00,
2013-02-14 06:31:00,37.6,32.3,29.69,South,180,6.9,6.9,81,0.00,OVC,,0.00,WeatherDisplay:10.37,2013-02-14 12:31:00,
2013-02-14 06:36:00,37.8,32.5,29.69,SSE,158,9.2,9.2,81,0.00,OVC,,0.00,WeatherDisplay:10.37,2013-02-14 12:36:00,
2013-02-14 06:41:00,37.6,32.3,29.69,SSE,158,9.2,9.2,81,0.00,OVC,,0.00,WeatherDisplay:10.37,2013-02-14 12:41:00,
2013-02-14 06:46:00,37.8,32.5,29.69,SE,135,9.2,9.2,81,0.00,OVC,,0.00,WeatherDisplay:10.37,2013-02-14 12:46:00,
2013-02-14 06:51:00,37.8,32.8,29.69,WSW,248,3.5,4.9,82,0.00,OVC,,0.00,WeatherDisplay:10.37,2013-02-14 12:51:00,
2013-02-14 06:56:00,37.6,32.6,29.69,South,180,9.2,9.2,82,0.00,OVC,,0.00,WeatherDisplay:10.37,2013-02-14 12:56:00,
2013-02-14 07:01:00,37.4,32.4,29.69,South,180,5.9,5.9,82,0.00,OVC,,0.00,WeatherDisplay:10.37,2013-02-14 13:01:00,
2013-02-14 07:06:00,37.6,32.6,29.69,South,180,8.1,8.1,82,0.00,OVC,,0.00,WeatherDisplay:10.37,2013-02-14 13:06:00,
2013-02-14 07:11:00,37.4,32.4,29.69,SW,225,8.1,8.1,82,0.00,OVC,,0.00,WeatherDisplay:10.37,2013-02-14 13:11:00,
2013-02-14 07:16:00,37.6,32.6,29.69,SSE,158,8.1,8.1,82,0.00,OVC,,0.00,WeatherDisplay:10.37,2013-02-14 13:16:00,
2013-02-14 07:21:00,37.8,32.8,29.69,SW,225,2.8,4.5,82,0.00,OVC,,0.00,WeatherDisplay:10.37,2013-02-14 13:21:00,
2013-02-14 07:26:00,37.8,32.8,29.69,SE,135,9.2,9.2,82,0.00,OVC,,0.00,WeatherDisplay:10.37,2013-02-14 13:26:00,
2013-02-14 07:31:00,37.8,33.1,29.69,SSE,158,9.2,9.2,83,0.00,OVC,,0.00,WeatherDisplay:10.37,2013-02-14 13:31:00,
2013-02-14 07:36:00,37.8,33.1,29.69,SW,225,6.9,6.9,83,0.00,OVC,,0.00,WeatherDisplay:10.37,2013-02-14 13:36:00,
2013-02-14 07:41:00,37.8,32.8,29.72,South,180,9.2,9.2,82,0.00,OVC,,0.00,WeatherDisplay:10.37,2013-02-14 13:41:00,
2013-02-14 07:46:00,37.8,33.1,29.72,WNW,292,6.9,6.9,83,0.00,OVC,,0.00,WeatherDisplay:10.37,2013-02-14 13:46:00,
2013-02-14 07:51:00,37.9,32.9,29.72,SW,225,4.8,4.8,82,0.00,OVC,,0.00,WeatherDisplay:10.37,2013-02-14 13:51:00,
2013-02-14 07:56:00,38.3,33.6,29.72,SSE,158,6.9,6.9,83,0.00,OVC,,0.00,WeatherDisplay:10.37,2013-02-14 13:56:00,
2013-02-14 08:01:00,38.5,33.8,29.76,SSE,158,6.1,6.1,83,0.00,BKN,,0.00,WeatherDisplay:10.37,2013-02-14 14:01:00,
2013-02-14 08:06:00,39.2,34.2,29.76,WSW,248,6.9,6.9,82,0.00,BKN,,0.00,WeatherDisplay:10.37,2013-02-14 14:06:00,
2013-02-14 08:11:00,39.9,34.9,29.76,SW,225,10.4,10.4,82,0.00,BKN,,0.00,WeatherDisplay:10.37,2013-02-14 14:11:00,
2013-02-14 08:16:00,40.3,34.9,29.76,West,270,11.5,11.5,81,0.00,BKN,,0.00,WeatherDisplay:10.37,2013-02-14 14:16:00,
2013-02-14 08:21:00,40.5,34.8,29.75,South,180,11.5,11.5,80,0.00,BKN,,0.00,WeatherDisplay:10.37,2013-02-14 14:21:00,
2013-02-14 08:26:00,40.5,34.8,29.75,SSW,202,4.6,4.9,80,0.00,BKN,,0.00,WeatherDisplay:10.37,2013-02-14 14:26:00,
2013-02-14 08:31:00,40.1,34.1,29.75,SW,225,11.5,11.5,79,0.00,BKN,,0.00,WeatherDisplay:10.37,2013-02-14 14:31:00,
2013-02-14 08:36:00,40.1,34.1,29.75,South,180,6.9,6.9,79,0.00,BKN,,0.00,WeatherDisplay:10.37,2013-02-14 14:36:00,
2013-02-14 08:41:00,39.9,33.9,29.73,SW,225,10.4,10.4,79,0.00,BKN,,0.00,WeatherDisplay:10.37,2013-02-14 14:41:00,
2013-02-14 08:46:00,39.9,33.9,29.73,SSW,202,13.8,13.8,79,0.00,BKN,,0.00,WeatherDisplay:10.37,2013-02-14 14:46:00,
2013-02-14 08:51:00,40.1,34.1,29.73,SW,225,3.8,5.9,79,0.00,BKN,,0.00,WeatherDisplay:10.37,2013-02-14 14:51:00,
2013-02-14 08:56:00,39.9,33.9,29.73,South,180,6.9,6.9,79,0.00,BKN,,0.00,WeatherDisplay:10.37,2013-02-14 14:56:00,
2013-02-14 09:01:00,39.9,33.9,29.76,WSW,248,9.2,9.2,79,0.00,BKN,,0.00,WeatherDisplay:10.37,2013-02-14 15:01:00,
2013-02-14 09:06:00,40.1,34.1,29.76,NNW,338,8.1,8.1,79,0.00,BKN,,0.00,WeatherDisplay:10.37,2013-02-14 15:06:00,
2013-02-14 09:11:00,39.9,33.9,29.76,WSW,248,8.1,8.1,79,0.00,BKN,,0.00,WeatherDisplay:10.37,2013-02-14 15:11:00,
2013-02-14 09:16:00,40.3,34.3,29.76,NW,315,8.1,8.1,79,0.00,BKN,,0.00,WeatherDisplay:10.37,2013-02-14 15:16:00,
2013-02-14 09:21:00,40.5,34.8,29.77,SW,225,8.1,8.1,80,0.00,BKN,,0.00,WeatherDisplay:10.37,2013-02-14 15:21:00,
2013-02-14 09:26:00,40.8,34.8,29.77,West,270,10.5,10.5,79,0.00,BKN,,0.00,WeatherDisplay:10.37,2013-02-14 15:26:00,
2013-02-14 09:31:00,41.2,34.8,29.77,West,270,3.5,4.0,78,0.00,BKN,,0.00,WeatherDisplay:10.37,2013-02-14 15:31:00,
2013-02-14 09:36:00,41.2,34.8,29.77,South,180,4.8,4.8,78,0.00,BKN,,0.00,WeatherDisplay:10.37,2013-02-14 15:36:00,
2013-02-14 09:41:00,41.4,35.0,29.76,South,180,6.9,6.9,78,0.00,BKN,,0.00,WeatherDisplay:10.37,2013-02-14 15:41:00,
2013-02-14 09:46:00,41.5,35.2,29.76,West,270,10.4,10.4,78,0.00,BKN,,0.00,WeatherDisplay:10.37,2013-02-14 15:46:00,
2013-02-14 09:51:00,42.4,35.7,29.76,WSW,248,6.9,6.9,77,0.00,BKN,,0.00,WeatherDisplay:10.37,2013-02-14 15:51:00,
2013-02-14 09:56:00,43.0,36.3,29.76,SSE,158,9.2,9.2,77,0.00,BKN,,0.00,WeatherDisplay:10.37,2013-02-14 15:56:00,
2013-02-14 10:01:00,43.5,36.1,29.77,WSW,248,11.5,11.5,75,0.00,SKC,,0.00,WeatherDisplay:10.37,2013-02-14 16:01:00,
2013-02-14 10:06:00,43.5,35.8,29.77,SSE,158,5.8,5.8,74,0.00,SKC,,0.00,WeatherDisplay:10.37,2013-02-14 16:06:00,
2013-02-14 10:11:00,43.9,35.8,29.77,South,180,6.1,6.6,73,0.00,SKC,,0.00,WeatherDisplay:10.37,2013-02-14 16:11:00,
2013-02-14 10:16:00,44.1,35.6,29.77,West,270,8.1,8.1,72,0.00,SKC,,0.00,WeatherDisplay:10.37,2013-02-14 16:16:00,
2013-02-14 10:21:00,44.2,35.1,29.77,West,270,6.9,6.9,70,0.00,SKC,,0.00,WeatherDisplay:10.37,2013-02-14 16:21:00,
2013-02-14 10:26:00,44.1,34.5,29.77,West,270,10.4,10.4,69,0.00,SKC,,0.00,WeatherDisplay:10.37,2013-02-14 16:26:00,
2013-02-14 10:31:00,43.7,34.2,29.77,NW,315,16.1,16.1,69,0.00,SKC,,0.00,WeatherDisplay:10.37,2013-02-14 16:31:00,
2013-02-14 10:36:00,43.5,34.0,29.77,WSW,248,11.8,11.8,69,0.00,SKC,,0.00,WeatherDisplay:10.37,2013-02-14 16:36:00,
2013-02-14 10:41:00,43.0,33.5,29.78,SW,225,5.8,5.9,69,0.00,SKC,,0.00,WeatherDisplay:10.37,2013-02-14 16:41:00,
2013-02-14 10:46:00,42.8,33.7,29.78,West,270,11.5,11.5,70,0.00,SKC,,0.00,WeatherDisplay:10.37,2013-02-14 16:46:00,
2013-02-14 10:51:00,42.3,33.2,29.78,WNW,292,7.4,7.4,70,0.00,SKC,,0.00,WeatherDisplay:10.37,2013-02-14 16:51:00,
2013-02-14 10:56:00,42.1,33.0,29.78,West,270,9.3,9.3,70,0.00,SKC,,0.00,WeatherDisplay:10.37,2013-02-14 16:56:00,
2013-02-14 11:01:00,41.9,33.2,29.78,WSW,248,7.0,7.0,71,0.00,OVC,,0.00,WeatherDisplay:10.37,2013-02-14 17:01:00,
2013-02-14 11:06:00,41.9,33.2,29.78,NW,315,6.9,6.9,71,0.00,OVC,,0.00,WeatherDisplay:10.37,2013-02-14 17:06:00,
2013-02-14 11:11:00,41.5,32.8,29.78,West,270,9.2,9.2,71,0.00,OVC,,0.00,WeatherDisplay:10.37,2013-02-14 17:11:00,
2013-02-14 11:16:00,41.2,32.5,29.78,WSW,248,8.1,8.1,71,0.00,OVC,,0.00,WeatherDisplay:10.37,2013-02-14 17:16:00,
2013-02-14 11:21:00,41.2,32.5,29.79,SW,225,4.6,7.5,71,0.00,OVC,,0.00,WeatherDisplay:10.37,2013-02-14 17:21:00,
2013-02-14 11:26:00,41.0,32.3,29.79,SSE,158,6.9,6.9,71,0.00,OVC,,0.00,WeatherDisplay:10.37,2013-02-14 17:26:00,
2013-02-14 11:31:00,41.2,32.5,29.79,South,180,6.9,6.9,71,0.00,OVC,,0.00,WeatherDisplay:10.37,2013-02-14 17:31:00,
2013-02-14 11:36:00,41.0,32.3,29.79,West,270,9.2,9.2,71,0.00,OVC,,0.00,WeatherDisplay:10.37,2013-02-14 17:36:00,
2013-02-14 11:41:00,40.8,31.8,29.80,WSW,248,12.7,12.7,70,0.00,OVC,,0.00,WeatherDisplay:10.37,2013-02-14 17:41:00,
2013-02-14 11:46:00,40.8,31.8,29.80,WSW,248,11.5,11.5,70,0.00,OVC,,0.00,WeatherDisplay:10.37,2013-02-14 17:46:00,
2013-02-14 11:51:00,40.8,31.8,29.80,NW,315,6.1,6.6,70,0.00,OVC,,0.00,WeatherDisplay:10.37,2013-02-14 17:51:00,
2013-02-14 11:56:00,40.8,31.8,29.80,WNW,292,4.6,5.5,70,0.00,OVC,,0.00,WeatherDisplay:10.37,2013-02-14 17:56:00,
2013-02-14 12:01:00,41.2,32.1,29.80,West,270,5.8,5.8,70,0.00,OVC,,0.00,WeatherDisplay:10.37,2013-02-14 18:01:00,
2013-02-14 12:06:00,41.2,32.1,29.80,NW,315,3.5,4.9,70,0.00,OVC,,0.00,WeatherDisplay:10.37,2013-02-14 18:06:00,
2013-02-14 12:11:00,41.2,32.1,29.80,NW,315,3.5,4.9,70,0.00,OVC,,0.00,WeatherDisplay:10.37,2013-02-14 18:11:00,
2013-02-14 12:16:00,41.4,31.9,29.80,WNW,292,11.5,11.5,69,0.00,OVC,,0.00,WeatherDisplay:10.37,2013-02-14 18:16:00,
2013-02-14 12:21:00,41.4,31.9,29.80,WSW,248,9.2,9.2,69,0.00,OVC,,0.00,WeatherDisplay:10.37,2013-02-14 18:21:00,
2013-02-14 12:26:00,41.4,31.9,29.80,WNW,292,11.7,11.7,69,0.00,OVC,,0.00,WeatherDisplay:10.37,2013-02-14 18:26:00,
2013-02-14 12:31:00,41.4,31.9,29.80,West,270,5.8,5.9,69,0.00,OVC,,0.00,WeatherDisplay:10.37,2013-02-14 18:31:00,
2013-02-14 12:36:00,41.2,31.8,29.80,West,270,4.9,5.1,69,0.00,OVC,,0.00,WeatherDisplay:10.37,2013-02-14 18:36:00,
2013-02-14 12:41:00,41.2,31.8,29.80,West,270,9.2,9.2,69,0.00,OVC,,0.00,WeatherDisplay:10.37,2013-02-14 18:41:00,
2013-02-14 12:46:00,41.2,32.1,29.80,SW,225,4.6,6.0,70,0.00,OVC,,0.00,WeatherDisplay:10.37,2013-02-14 18:46:00,
2013-02-14 12:51:00,41.2,32.1,29.80,SSW,202,6.2,6.6,70,0.00,OVC,,0.00,WeatherDisplay:10.37,2013-02-14 18:51:00,
2013-02-14 12:56:00,41.2,32.1,29.80,West,270,6.9,6.9,70,0.00,OVC,,0.00,WeatherDisplay:10.37,2013-02-14 18:56:00,
2013-02-14 13:01:00,41.2,32.1,29.81,WSW,248,11.5,11.5,70,0.00,BKN,,0.00,WeatherDisplay:10.37,2013-02-14 19:01:00,
2013-02-14 13:06:00,41.2,32.1,29.81,WSW,248,12.7,12.7,70,0.00,BKN,,0.00,WeatherDisplay:10.37,2013-02-14 19:06:00,
2013-02-14 13:11:00,41.0,32.0,29.81,West,270,5.8,5.8,70,0.00,BKN,,0.00,WeatherDisplay:10.37,2013-02-14 19:11:00,
2013-02-14 13:16:00,41.2,32.1,29.81,West,270,8.1,8.1,70,0.00,BKN,,0.00,WeatherDisplay:10.37,2013-02-14 19:16:00,
2013-02-14 13:21:00,41.2,32.1,29.81,West,270,5.2,5.2,70,0.00,BKN,,0.00,WeatherDisplay:10.37,2013-02-14 19:21:00,
2013-02-14 13:26:00,40.8,32.1,29.81,WSW,248,4.6,5.5,71,0.00,BKN,,0.00,WeatherDisplay:10.37,2013-02-14 19:26:00,
2013-02-14 13:31:00,41.0,32.3,29.81,North,0,5.8,5.8,71,0.00,BKN,,0.00,WeatherDisplay:10.37,2013-02-14 19:31:00,
2013-02-14 13:36:00,40.6,32.0,29.81,SW,225,10.4,10.4,71,0.00,BKN,,0.00,WeatherDisplay:10.37,2013-02-14 19:36:00,
2013-02-14 13:41:00,40.8,32.1,29.81,South,180,4.6,4.9,71,0.00,BKN,,0.00,WeatherDisplay:10.37,2013-02-14 19:41:00,
2013-02-14 13:46:00,40.6,32.3,29.81,West,270,8.1,8.1,72,0.00,BKN,,0.00,WeatherDisplay:10.37,2013-02-14 19:46:00,
2013-02-14 13:51:00,40.6,32.3,29.81,WNW,292,2.3,3.7,72,0.00,BKN,,0.00,WeatherDisplay:10.37,2013-02-14 19:51:00,
2013-02-14 13:56:00,40.6,32.3,29.81,West,270,10.4,10.4,72,0.00,BKN,,0.00,WeatherDisplay:10.37,2013-02-14 19:56:00,
2013-02-14 14:01:00,40.6,32.3,29.79,WSW,248,12.9,12.9,72,0.00,OVC,,0.00,WeatherDisplay:10.37,2013-02-14 20:01:00,
2013-02-14 14:06:00,40.6,32.3,29.79,WNW,292,10.7,10.7,72,0.00,OVC,,0.00,WeatherDisplay:10.37,2013-02-14 20:06:00,
2013-02-14 14:11:00,40.5,32.1,29.79,WSW,248,11.5,11.5,72,0.00,OVC,,0.00,WeatherDisplay:10.37,2013-02-14 20:11:00,
2013-02-14 14:16:00,40.3,32.0,29.79,West,270,8.1,8.1,72,0.00,OVC,,0.00,WeatherDisplay:10.37,2013-02-14 20:16:00,
2013-02-14 14:21:00,40.5,32.5,29.82,WSW,248,5.8,5.8,73,0.00,OVC,,0.00,WeatherDisplay:10.37,2013-02-14 20:21:00,
2013-02-14 14:26:00,40.5,32.5,29.82,West,270,9.2,9.2,73,0.00,OVC,,0.00,WeatherDisplay:10.37,2013-02-14 20:26:00,
2013-02-14 14:31:00,40.5,32.5,29.82,SW,225,8.1,8.1,73,0.00,OVC,,0.00,WeatherDisplay:10.37,2013-02-14 20:31:00,
2013-02-14 14:36:00,40.5,32.5,29.82,NNE,22,4.6,4.9,73,0.00,OVC,,0.00,WeatherDisplay:10.37,2013-02-14 20:36:00,
2013-02-14 14:41:00,40.5,32.5,29.84,West,270,12.7,12.7,73,0.00,OVC,,0.00,WeatherDisplay:10.37,2013-02-14 20:41:00,
2013-02-14 14:46:00,40.5,32.1,29.84,WNW,292,11.5,11.5,72,0.00,OVC,,0.00,WeatherDisplay:10.37,2013-02-14 20:46:00,
2013-02-14 14:51:00,40.3,32.0,29.84,NNE,22,4.6,5.8,72,0.00,OVC,,0.00,WeatherDisplay:10.37,2013-02-14 20:51:00,
2013-02-14 14:56:00,40.5,32.1,29.84,West,270,8.1,8.1,72,0.00,OVC,,0.00,WeatherDisplay:10.37,2013-02-14 20:56:00,
2013-02-14 15:01:00,40.5,32.1,29.81,WNW,292,1.2,4.4,72,0.00,OVC,,0.00,WeatherDisplay:10.37,2013-02-14 21:01:00,
2013-02-14 15:06:00,40.3,32.0,29.81,North,0,9.5,9.5,72,0.00,OVC,,0.00,WeatherDisplay:10.37,2013-02-14 21:06:00,
2013-02-14 15:11:00,40.5,32.1,29.81,WNW,292,5.8,5.8,72,0.00,OVC,,0.00,WeatherDisplay:10.37,2013-02-14 21:11:00,
2013-02-14 15:16:00,40.5,31.8,29.81,WSW,248,9.2,9.2,71,0.00,OVC,,0.00,WeatherDisplay:10.37,2013-02-14 21:16:00,
2013-02-14 15:21:00,40.5,31.8,29.85,West,270,3.5,6.1,71,0.00,OVC,,0.00,WeatherDisplay:10.37,2013-02-14 21:21:00,
2013-02-14 15:26:00,40.3,31.3,29.85,NW,315,8.1,8.1,70,0.00,OVC,,0.00,WeatherDisplay:10.37,2013-02-14 21:26:00,
2013-02-14 15:31:00,40.3,31.3,29.85,WSW,248,4.6,5.6,70,0.00,OVC,,0.00,WeatherDisplay:10.37,2013-02-14 21:31:00,
2013-02-14 15:36:00,40.5,31.8,29.85,West,270,10.4,10.4,71,0.00,OVC,,0.00,WeatherDisplay:10.37,2013-02-14 21:36:00,
2013-02-14 15:41:00,40.5,31.4,29.88,WNW,292,6.9,6.9,70,0.00,OVC,,0.00,WeatherDisplay:10.37,2013-02-14 21:41:00,
2013-02-14 15:46:00,40.5,31.4,29.88,WNW,292,9.2,9.2,70,0.00,OVC,,0.00,WeatherDisplay:10.37,2013-02-14 21:46:00,
2013-02-14 15:51:00,40.5,31.4,29.88,WNW,292,7.2,7.2,70,0.00,OVC,,0.00,WeatherDisplay:10.37,2013-02-14 21:51:00,
2013-02-14 15:56:00,40.5,31.4,29.88,WSW,248,6.9,6.9,70,0.00,OVC,,0.00,WeatherDisplay:10.37,2013-02-14 21:56:00,
2013-02-14 16:01:00,40.5,31.4,29.84,WSW,248,4.6,5.1,70,0.00,OVC,,0.00,WeatherDisplay:10.37,2013-02-14 22:01:00,
2013-02-14 16:06:00,40.3,31.3,29.84,West,270,6.9,6.9,70,0.00,OVC,,0.00,WeatherDisplay:10.37,2013-02-14 22:06:00,
2013-02-14 16:11:00,40.1,30.7,29.84,WSW,248,6.9,6.9,69,0.00,OVC,,0.00,WeatherDisplay:10.37,2013-02-14 22:11:00,
2013-02-14 16:16:00,40.5,31.1,29.84,NW,315,5.8,5.8,69,0.00,OVC,,0.00,WeatherDisplay:10.37,2013-02-14 22:16:00,
2013-02-14 16:21:00,40.1,30.4,29.86,West,270,9.2,9.2,68,0.00,OVC,,0.00,WeatherDisplay:10.37,2013-02-14 22:21:00,
2013-02-14 16:26:00,40.1,30.4,29.86,NW,315,5.8,5.8,68,0.00,OVC,,0.00,WeatherDisplay:10.37,2013-02-14 22:26:00,
2013-02-14 16:31:00,40.1,30.0,29.86,NNW,338,10.5,10.5,67,0.00,OVC,,0.00,WeatherDisplay:10.37,2013-02-14 22:31:00,
2013-02-14 16:36:00,40.1,30.0,29.86,WNW,292,9.2,9.2,67,0.00,OVC,,0.00,WeatherDisplay:10.37,2013-02-14 22:36:00,
2013-02-14 16:41:00,40.1,29.3,29.88,WSW,248,5.8,6.6,65,0.00,OVC,,0.00,WeatherDisplay:10.37,2013-02-14 22:41:00,
2013-02-14 16:46:00,40.1,29.3,29.88,WNW,292,9.2,9.2,65,0.00,OVC,,0.00,WeatherDisplay:10.37,2013-02-14 22:46:00,
2013-02-14 16:51:00,39.9,29.1,29.88,NNE,22,15.0,15.0,65,0.00,OVC,,0.00,WeatherDisplay:10.37,2013-02-14 22:51:00,
2013-02-14 16:56:00,39.9,29.1,29.88,NW,315,4.6,6.2,65,0.00,OVC,,0.00,WeatherDisplay:10.37,2013-02-14 22:56:00,
2013-02-14 17:01:00,39.9,29.1,29.87,WSW,248,5.8,6.2,65,0.00,OVC,,0.00,WeatherDisplay:10.37,2013-02-14 23:01:00,
2013-02-14 17:06:00,39.9,29.1,29.87,WNW,292,8.1,8.1,65,0.00,OVC,,0.00,WeatherDisplay:10.37,2013-02-14 23:06:00,
2013-02-14 17:11:00,39.9,28.7,29.87,WNW,292,7.5,7.5,64,0.00,OVC,,0.00,WeatherDisplay:10.37,2013-02-14 23:11:00,
2013-02-14 17:16:00,39.9,28.7,29.87,WSW,248,10.4,10.4,64,0.00,OVC,,0.00,WeatherDisplay:10.37,2013-02-14 23:16:00,
2013-02-14 17:21:00,39.9,27.9,29.88,WSW,248,8.1,8.1,62,0.00,OVC,,0.00,WeatherDisplay:10.37,2013-02-14 23:21:00,
2013-02-14 17:26:00,39.9,27.5,29.88,SSE,158,6.9,6.9,61,0.00,OVC,,0.00,WeatherDisplay:10.37,2013-02-14 23:26:00,
2013-02-14 17:31:00,39.7,27.4,29.88,West,270,9.2,9.2,61,0.00,OVC,,0.00,WeatherDisplay:10.37,2013-02-14 23:31:00,
2013-02-14 17:36:00,39.6,26.8,29.88,NW,315,9.2,9.2,60,0.00,OVC,,0.00,WeatherDisplay:10.37,2013-02-14 23:36:00,
2013-02-14 17:41:00,39.6,26.8,29.89,West,270,6.9,6.9,60,0.00,OVC,,0.00,WeatherDisplay:10.37,2013-02-14 23:41:00,
2013-02-14 17:46:00,39.4,26.6,29.89,West,270,5.8,5.8,60,0.00,OVC,,0.00,WeatherDisplay:10.37,2013-02-14 23:46:00,
2013-02-14 17:51:00,39.2,26.9,29.89,NNW,338,4.6,4.6,61,0.00,OVC,,0.00,WeatherDisplay:10.37,2013-02-14 23:51:00,
2013-02-14 17:56:00,39.2,26.9,29.89,NW,315,4.6,4.6,61,0.00,OVC,,0.00,WeatherDisplay:10.37,2013-02-14 23:56:00,
2013-02-14 18:01:00,39.2,26.9,29.91,WNW,292,5.8,5.8,61,0.00,BKN,,0.00,WeatherDisplay:10.37,2013-02-15 00:01:00,
2013-02-14 18:06:00,39.0,27.1,29.91,NNW,338,6.9,6.9,62,0.00,BKN,,0.00,WeatherDisplay:10.37,2013-02-15 00:06:00,
2013-02-14 18:11:00,38.7,26.8,29.91,NW,315,14.4,14.4,62,0.00,BKN,,0.00,WeatherDisplay:10.37,2013-02-15 00:11:00,
2013-02-14 18:16:00,38.7,26.4,29.91,WNW,292,16.1,16.1,61,0.00,BKN,,0.00,WeatherDisplay:10.37,2013-02-15 00:16:00,
2013-02-14 18:21:00,38.5,25.4,29.92,NW,315,13.8,13.8,59,0.00,BKN,,0.00,WeatherDisplay:10.37,2013-02-15 00:21:00,
2013-02-14 18:26:00,38.5,25.4,29.92,West,270,15.0,15.0,59,0.00,BKN,,0.00,WeatherDisplay:10.37,2013-02-15 00:26:00,
2013-02-14 18:31:00,38.3,25.2,29.92,West,270,5.8,8.1,59,0.00,BKN,,0.00,WeatherDisplay:10.37,2013-02-15 00:31:00,
2013-02-14 18:36:00,38.1,25.0,29.92,WSW,248,11.5,11.5,59,0.00,BKN,,0.00,WeatherDisplay:10.37,2013-02-15 00:36:00,
2013-02-14 18:41:00,37.9,24.9,29.92,WNW,292,4.6,6.8,59,0.00,BKN,,0.00,WeatherDisplay:10.37,2013-02-15 00:41:00,
2013-02-14 18:46:00,37.9,24.9,29.92,NW,315,6.9,6.9,59,0.00,BKN,,0.00,WeatherDisplay:10.37,2013-02-15 00:46:00,
2013-02-14 18:51:00,37.9,24.9,29.92,NW,315,4.6,6.6,59,0.00,BKN,,0.00,WeatherDisplay:10.37,2013-02-15 00:51:00,
2013-02-14 18:56:00,37.8,24.7,29.92,WSW,248,9.2,9.2,59,0.00,BKN,,0.00,WeatherDisplay:10.37,2013-02-15 00:56:00,
2013-02-14 19:01:00,37.9,24.5,29.93,NW,315,9.2,9.2,58,0.00,OVC,,0.00,WeatherDisplay:10.37,2013-02-15 01:01:00,
2013-02-14 19:06:00,37.8,24.3,29.93,NNW,338,9.5,9.5,58,0.00,OVC,,0.00,WeatherDisplay:10.37,2013-02-15 01:06:00,
2013-02-14 19:11:00,37.6,24.1,29.93,WNW,292,6.9,6.9,58,0.00,OVC,,0.00,WeatherDisplay:10.37,2013-02-15 01:11:00,
2013-02-14 19:16:00,37.6,23.7,29.93,NW,315,9.5,9.5,57,0.00,OVC,,0.00,WeatherDisplay:10.37,2013-02-15 01:16:00,
2013-02-14 19:21:00,37.6,23.7,29.94,WNW,292,6.9,6.9,57,0.00,OVC,,0.00,WeatherDisplay:10.37,2013-02-15 01:21:00,
2013-02-14 19:26:00,37.4,24.0,29.94,NW,315,8.1,8.1,58,0.00,OVC,,0.00,WeatherDisplay:10.37,2013-02-15 01:26:00,
2013-02-14 19:31:00,37.6,24.1,29.94,NW,315,5.8,6.2,58,0.00,OVC,,0.00,WeatherDisplay:10.37,2013-02-15 01:31:00,
2013-02-14 19:36:00,37.6,24.1,29.94,SSW,202,9.2,9.2,58,0.00,OVC,,0.00,WeatherDisplay:10.37,2013-02-15 01:36:00,
2013-02-14 19:41:00,37.4,24.0,29.95,WNW,292,5.8,5.8,58,0.00,OVC,,0.00,WeatherDisplay:10.37,2013-02-15 01:41:00,
2013-02-14 19:46:00,37.4,24.0,29.95,NW,315,13.8,13.8,58,0.00,OVC,,0.00,WeatherDisplay:10.37,2013-02-15 01:46:00,
2013-02-14 19:51:00,37.4,24.0,29.95,WNW,292,6.1,6.7,58,0.00,OVC,,0.00,WeatherDisplay:10.37,2013-02-15 01:51:00,
2013-02-14 19:56:00,37.6,24.1,29.95,WNW,292,5.8,5.8,58,0.00,OVC,,0.00,WeatherDisplay:10.37,2013-02-15 01:56:00,
2013-02-14 20:01:00,37.6,24.5,29.95,WSW,248,11.5,11.5,59,0.00,OVC,,0.00,WeatherDisplay:10.37,2013-02-15 02:01:00,
2013-02-14 20:06:00,37.4,24.0,29.95,WSW,248,8.1,8.1,58,0.00,OVC,,0.00,WeatherDisplay:10.37,2013-02-15 02:06:00,
2013-02-14 20:11:00,37.2,24.2,29.95,WNW,292,5.8,5.8,59,0.00,OVC,,0.00,WeatherDisplay:10.37,2013-02-15 02:11:00,
2013-02-14 20:16:00,37.2,24.2,29.95,NNW,338,4.6,4.7,59,0.00,OVC,,0.00,WeatherDisplay:10.37,2013-02-15 02:16:00,
2013-02-14 20:21:00,37.2,24.2,29.95,WNW,292,6.9,6.9,59,0.00,OVC,,0.00,WeatherDisplay:10.37,2013-02-15 02:21:00,
2013-02-14 20:26:00,37.2,24.2,29.95,WNW,292,2.3,3.5,59,0.00,OVC,,0.00,WeatherDisplay:10.37,2013-02-15 02:26:00,
2013-02-14 20:31:00,37.0,24.4,29.95,WSW,248,4.6,4.6,60,0.00,OVC,,0.00,WeatherDisplay:10.37,2013-02-15 02:31:00,
2013-02-14 20:36:00,37.0,24.4,29.95,WSW,248,6.9,6.9,60,0.00,OVC,,0.00,WeatherDisplay:10.37,2013-02-15 02:36:00,
2013-02-14 20:41:00,37.0,24.4,29.96,WNW,292,2.3,3.5,60,0.00,OVC,,0.00,WeatherDisplay:10.37,2013-02-15 02:41:00,
2013-02-14 20:46:00,37.2,25.0,29.96,NW,315,6.9,6.9,61,0.00,OVC,,0.00,WeatherDisplay:10.37,2013-02-15 02:46:00,
2013-02-14 20:51:00,37.2,25.0,29.96,WNW,292,2.3,4.4,61,0.00,OVC,,0.00,WeatherDisplay:10.37,2013-02-15 02:51:00,
2013-02-14 20:56:00,37.2,25.0,29.96,NNW,338,4.6,4.6,61,0.00,OVC,,0.00,WeatherDisplay:10.37,2013-02-15 02:56:00,
2013-02-14 21:01:00,36.9,24.7,29.95,NW,315,2.3,3.5,61,0.00,OVC,,0.00,WeatherDisplay:10.37,2013-02-15 03:01:00,
2013-02-14 21:06:00,36.9,24.7,29.95,West,270,5.8,5.8,61,0.00,OVC,,0.00,WeatherDisplay:10.37,2013-02-15 03:06:00,
2013-02-14 21:11:00,36.7,24.5,29.95,WNW,292,2.3,3.5,61,0.00,OVC,,0.00,WeatherDisplay:10.37,2013-02-15 03:11:00,
2013-02-14 21:16:00,36.9,24.7,29.95,NNW,338,5.8,5.8,61,0.00,OVC,,0.00,WeatherDisplay:10.37,2013-02-15 03:16:00,
2013-02-14 21:21:00,36.5,23.9,29.95,WNW,292,3.5,3.7,60,0.00,OVC,,0.00,WeatherDisplay:10.37,2013-02-15 03:21:00,
2013-02-14 21:26:00,36.5,23.9,29.95,WNW,292,6.9,6.9,60,0.00,OVC,,0.00,WeatherDisplay:10.37,2013-02-15 03:26:00,
2013-02-14 21:31:00,36.5,23.9,29.95,NW,315,4.6,4.6,60,0.00,OVC,,0.00,WeatherDisplay:10.37,2013-02-15 03:31:00,
2013-02-14 21:36:00,36.3,24.1,29.95,NW,315,4.6,4.6,61,0.00,OVC,,0.00,WeatherDisplay:10.37,2013-02-15 03:36:00,
2013-02-14 21:41:00,36.1,24.0,29.95,WSW,248,1.2,2.6,61,0.00,OVC,,0.00,WeatherDisplay:10.37,2013-02-15 03:41:00,
2013-02-14 21:46:00,36.0,23.8,29.95,North,0,4.6,4.6,61,0.00,OVC,,0.00,WeatherDisplay:10.37,2013-02-15 03:46:00,
2013-02-14 21:51:00,36.1,24.0,29.95,NW,315,5.8,5.8,61,0.00,OVC,,0.00,WeatherDisplay:10.37,2013-02-15 03:51:00,
2013-02-14 21:56:00,35.8,23.6,29.95,WNW,292,3.5,3.7,61,0.00,OVC,,0.00,WeatherDisplay:10.37,2013-02-15 03:56:00,
2013-02-14 22:01:00,35.6,23.9,29.95,NNW,338,3.5,3.5,62,0.00,OVC,,0.00,WeatherDisplay:10.37,2013-02-15 04:01:00,
2013-02-14 22:06:00,35.6,23.9,29.95,WNW,292,2.3,2.4,62,0.00,OVC,,0.00,WeatherDisplay:10.37,2013-02-15 04:06:00,
2013-02-14 22:11:00,35.4,23.7,29.95,NW,315,0.0,2.2,62,0.00,OVC,,0.00,WeatherDisplay:10.37,2013-02-15 04:11:00,
2013-02-14 22:16:00,35.1,23.7,29.95,NW,315,2.3,2.3,63,0.00,OVC,,0.00,WeatherDisplay:10.37,2013-02-15 04:16:00,
2013-02-14 22:21:00,34.9,23.9,29.96,WNW,292,0.0,1.2,64,0.00,OVC,,0.00,WeatherDisplay:10.37,2013-02-15 04:21:00,
2013-02-14 22:26:00,35.1,24.1,29.96,West,270,2.3,2.3,64,0.00,OVC,,0.00,WeatherDisplay:10.37,2013-02-15 04:26:00,
2013-02-14 22:31:00,34.9,23.9,29.96,WNW,292,1.2,1.2,64,0.00,OVC,,0.00,WeatherDisplay:10.37,2013-02-15 04:31:00,
2013-02-14 22:36:00,34.9,24.3,29.96,NW,315,1.2,1.2,65,0.00,OVC,,0.00,WeatherDisplay:10.37,2013-02-15 04:36:00,
2013-02-14 22:41:00,34.7,24.5,29.96,West,270,2.3,2.3,66,0.00,OVC,,0.00,WeatherDisplay:10.37,2013-02-15 04:41:00,
2013-02-14 22:46:00,34.7,24.5,29.96,NNE,22,1.2,1.2,66,0.00,OVC,,0.00,WeatherDisplay:10.37,2013-02-15 04:46:00,
2013-02-14 22:51:00,34.7,24.9,29.96,NNE,22,2.3,2.3,67,0.00,OVC,,0.00,WeatherDisplay:10.37,2013-02-15 04:51:00,
2013-02-14 22:56:00,34.7,24.9,29.96,NW,315,2.3,2.3,67,0.00,OVC,,0.00,WeatherDisplay:10.37,2013-02-15 04:56:00,
2013-02-14 23:00:00,34.7,24.9,29.96,NW,322,1.0,2.0,67,0.00,OVC,,0.00,WeatherDisplay:10.37,2013-02-15 05:00:00,
2013-02-14 23:05:00,34.3,24.5,29.96,West,270,1.2,1.3,67,0.00,OVC,,0.00,WeatherDisplay:10.37,2013-02-15 05:05:00,
2013-02-14 23:10:00,34.2,24.3,29.96,NW,315,0.0,0.6,67,0.00,OVC,,0.00,WeatherDisplay:10.37,2013-02-15 05:10:00,
2013-02-14 23:15:00,34.0,24.5,29.96,WNW,292,1.2,1.2,68,0.00,OVC,,0.00,WeatherDisplay:10.37,2013-02-15 05:15:00,
2013-02-14 23:20:00,33.8,24.4,29.96,NW,315,1.2,1.2,68,0.00,OVC,,0.00,WeatherDisplay:10.37,2013-02-15 05:20:00,
2013-02-14 23:25:00,33.3,23.8,29.96,West,270,0.0,0.2,68,0.00,OVC,,0.00,WeatherDisplay:10.37,2013-02-15 05:25:00,
2013-02-14 23:30:00,32.7,23.7,29.96,WSW,248,0.0,0.0,69,0.00,OVC,,0.00,WeatherDisplay:10.37,2013-02-15 05:30:00,
2013-02-14 23:35:00,32.5,23.8,29.96,WSW,248,0.0,0.1,70,0.00,OVC,,0.00,WeatherDisplay:10.37,2013-02-15 05:35:00,
2013-02-14 23:40:00,32.5,23.8,29.97,WSW,248,1.2,1.2,70,0.00,OVC,,0.00,WeatherDisplay:10.37,2013-02-15 05:40:00,
2013-02-14 23:45:00,31.8,23.5,29.97,WSW,248,0.0,0.1,71,0.00,OVC,,0.00,WeatherDisplay:10.37,2013-02-15 05:45:00,
2013-02-14 23:50:00,31.8,23.8,29.97,West,270,0.0,0.0,72,0.00,OVC,,0.00,WeatherDisplay:10.37,2013-02-15 05:50:00,
2013-02-14 23:55:00,31.3,23.3,29.97,WSW,248,0.0,0.1,72,0.00,OVC,,0.00,WeatherDisplay:10.37,2013-02-15 05:55:00,